Terminal Aerodrome Forecast
Issued by NWS

Current Version | Previous Version | Text Only | Print | Product List | Glossary Off
Versions: 1 2 3 4 5 6 7 8 9 10 11 12 13 14 15 16 17 18 19 20

812
FTUS41 KILN 190546
TAFLUK
TAF
KLUK 190546Z 1906/2006 29013G20KT P6SM OVC040
      TEMPO 1906/1908 OVC028
     FM190800 30014G22KT P6SM OVC026
     FM191200 31014G23KT P6SM OVC018
     FM191600 33015G25KT P6SM BKN026
     FM191900 33012G20KT P6SM BKN040
     FM192100 32012G18KT P6SM SCT050
     FM200000 35007KT P6SM SKC=

USA.gov is the U.S. government's official web portal to all federal, state and local government web resources and services.